sensor_id;sensor_type;location;lat;lon;timestamp;P1;durP1;ratioP1;P2;durP2;ratioP2
13764;SDS011;6953;48.810;9.204;2022-08-25T00:01:13;0.40;;;0.40;;
13764;SDS011;6953;48.810;9.204;2022-08-25T00:03:44;0.50;;;0.50;;
13764;SDS011;6953;48.810;9.204;2022-08-25T00:06:10;0.40;;;0.40;;
13764;SDS011;6953;48.810;9.204;2022-08-25T00:08:36;0.50;;;0.50;;
13764;SDS011;6953;48.810;9.204;2022-08-25T00:11:03;0.40;;;0.40;;
13764;SDS011;6953;48.810;9.204;2022-08-25T00:13:36;0.40;;;0.40;;
13764;SDS011;6953;48.810;9.204;2022-08-25T00:16:02;0.40;;;0.40;;
13764;SDS011;6953;48.810;9.204;2022-08-25T00:18:28;0.40;;;0.40;;
13764;SDS011;6953;48.810;9.204;2022-08-25T00:20:53;0.40;;;0.40;;
13764;SDS011;6953;48.810;9.204;2022-08-25T00:23:19;0.40;;;0.40;;
13764;SDS011;6953;48.810;9.204;2022-08-25T00:25:44;0.50;;;0.50;;
13764;SDS011;6953;48.810;9.204;2022-08-25T00:28:10;0.40;;;0.40;;
13764;SDS011;6953;48.810;9.204;2022-08-25T00:30:35;0.50;;;0.50;;
13764;SDS011;6953;48.810;9.204;2022-08-25T00:33:01;0.50;;;0.50;;
13764;SDS011;6953;48.810;9.204;2022-08-25T00:35:27;0.40;;;0.40;;
13764;SDS011;6953;48.810;9.204;2022-08-25T00:37:52;0.50;;;0.50;;
13764;SDS011;6953;48.810;9.204;2022-08-25T00:40:18;0.40;;;0.40;;
13764;SDS011;6953;48.810;9.204;2022-08-25T00:42:44;0.47;;;0.47;;
13764;SDS011;6953;48.810;9.204;2022-08-25T00:45:09;0.40;;;0.40;;
13764;SDS011;6953;48.810;9.204;2022-08-25T00:47:35;0.50;;;0.50;;
13764;SDS011;6953;48.810;9.204;2022-08-25T00:50:00;0.40;;;0.40;;
13764;SDS011;6953;48.810;9.204;2022-08-25T00:52:30;0.50;;;0.50;;
13764;SDS011;6953;48.810;9.204;2022-08-25T00:55:02;0.50;;;0.50;;
13764;SDS011;6953;48.810;9.204;2022-08-25T00:57:29;0.50;;;0.50;;
13764;SDS011;6953;48.810;9.204;2022-08-25T00:59:58;0.40;;;0.40;;
13764;SDS011;6953;48.810;9.204;2022-08-25T01:02:25;0.50;;;0.50;;
13764;SDS011;6953;48.810;9.204;2022-08-25T01:04:50;0.40;;;0.40;;
13764;SDS011;6953;48.810;9.204;2022-08-25T01:07:17;0.40;;;0.40;;
13764;SDS011;6953;48.810;9.204;2022-08-25T01:09:45;0.50;;;0.50;;
13764;SDS011;6953;48.810;9.204;2022-08-25T01:12:14;0.50;;;0.50;;
13764;SDS011;6953;48.810;9.204;2022-08-25T01:14:40;0.50;;;0.50;;
13764;SDS011;6953;48.810;9.204;2022-08-25T01:17:08;0.50;;;0.50;;
13764;SDS011;6953;48.810;9.204;2022-08-25T01:19:34;0.60;;;0.60;;
13764;SDS011;6953;48.810;9.204;2022-08-25T01:22:00;0.30;;;0.30;;
13764;SDS011;6953;48.810;9.204;2022-08-25T01:24:37;0.40;;;0.40;;
13764;SDS011;6953;48.810;9.204;2022-08-25T01:27:03;0.50;;;0.50;;
13764;SDS011;6953;48.810;9.204;2022-08-25T01:29:30;0.50;;;0.50;;
13764;SDS011;6953;48.810;9.204;2022-08-25T01:31:57;0.50;;;0.50;;
13764;SDS011;6953;48.810;9.204;2022-08-25T01:34:25;0.50;;;0.50;;
13764;SDS011;6953;48.810;9.204;2022-08-25T01:36:53;0.60;;;0.60;;
13764;SDS011;6953;48.810;9.204;2022-08-25T01:39:21;0.45;;;0.45;;
13764;SDS011;6953;48.810;9.204;2022-08-25T01:44:13;0.40;;;0.40;;
13764;SDS011;6953;48.810;9.204;2022-08-25T01:46:39;0.50;;;0.50;;
13764;SDS011;6953;48.810;9.204;2022-08-25T01:49:05;0.50;;;0.50;;
13764;SDS011;6953;48.810;9.204;2022-08-25T01:51:37;0.50;;;0.50;;
13764;SDS011;6953;48.810;9.204;2022-08-25T01:54:15;0.50;;;0.50;;
13764;SDS011;6953;48.810;9.204;2022-08-25T01:56:41;0.50;;;0.50;;
13764;SDS011;6953;48.810;9.204;2022-08-25T01:59:06;0.47;;;0.47;;
13764;SDS011;6953;48.810;9.204;2022-08-25T02:01:33;0.50;;;0.50;;
13764;SDS011;6953;48.810;9.204;2022-08-25T02:03:58;0.40;;;0.40;;
13764;SDS011;6953;48.810;9.204;2022-08-25T02:06:26;0.40;;;0.40;;
13764;SDS011;6953;48.810;9.204;2022-08-25T02:08:55;0.50;;;0.50;;
13764;SDS011;6953;48.810;9.204;2022-08-25T02:11:32;0.50;;;0.50;;
13764;SDS011;6953;48.810;9.204;2022-08-25T02:13:59;0.45;;;0.45;;
13764;SDS011;6953;48.810;9.204;2022-08-25T02:16:26;0.50;;;0.50;;
13764;SDS011;6953;48.810;9.204;2022-08-25T02:18:55;0.50;;;0.50;;
13764;SDS011;6953;48.810;9.204;2022-08-25T02:21:23;0.40;;;0.40;;
13764;SDS011;6953;48.810;9.204;2022-08-25T02:23:49;0.50;;;0.50;;
13764;SDS011;6953;48.810;9.204;2022-08-25T02:26:14;0.40;;;0.40;;
13764;SDS011;6953;48.810;9.204;2022-08-25T02:28:46;0.45;;;0.45;;
13764;SDS011;6953;48.810;9.204;2022-08-25T02:31:13;0.45;;;0.45;;
13764;SDS011;6953;48.810;9.204;2022-08-25T02:33:40;0.50;;;0.50;;
13764;SDS011;6953;48.810;9.204;2022-08-25T02:36:05;0.50;;;0.50;;
13764;SDS011;6953;48.810;9.204;2022-08-25T02:38:31;0.40;;;0.40;;
13764;SDS011;6953;48.810;9.204;2022-08-25T02:40:58;0.50;;;0.50;;
13764;SDS011;6953;48.810;9.204;2022-08-25T02:43:24;0.55;;;0.55;;
13764;SDS011;6953;48.810;9.204;2022-08-25T02:45:51;0.50;;;0.50;;
13764;SDS011;6953;48.810;9.204;2022-08-25T02:48:17;0.47;;;0.47;;
13764;SDS011;6953;48.810;9.204;2022-08-25T02:50:47;0.50;;;0.50;;
13764;SDS011;6953;48.810;9.204;2022-08-25T02:53:15;0.40;;;0.40;;
13764;SDS011;6953;48.810;9.204;2022-08-25T02:55:41;0.50;;;0.50;;
13764;SDS011;6953;48.810;9.204;2022-08-25T02:58:06;0.47;;;0.47;;
13764;SDS011;6953;48.810;9.204;2022-08-25T03:00:33;0.40;;;0.40;;
13764;SDS011;6953;48.810;9.204;2022-08-25T03:02:58;0.50;;;0.50;;
13764;SDS011;6953;48.810;9.204;2022-08-25T03:05:24;0.50;;;0.50;;
13764;SDS011;6953;48.810;9.204;2022-08-25T03:07:49;0.40;;;0.40;;
13764;SDS011;6953;48.810;9.204;2022-08-25T03:10:15;0.50;;;0.50;;
13764;SDS011;6953;48.810;9.204;2022-08-25T03:12:42;0.50;;;0.50;;
13764;SDS011;6953;48.810;9.204;2022-08-25T03:15:10;0.40;;;0.40;;
13764;SDS011;6953;48.810;9.204;2022-08-25T03:17:37;0.50;;;0.50;;
13764;SDS011;6953;48.810;9.204;2022-08-25T03:20:04;0.60;;;0.60;;
13764;SDS011;6953;48.810;9.204;2022-08-25T03:22:29;0.50;;;0.50;;
13764;SDS011;6953;48.810;9.204;2022-08-25T03:24:55;0.50;;;0.50;;
13764;SDS011;6953;48.810;9.204;2022-08-25T03:27:40;0.50;;;0.50;;
13764;SDS011;6953;48.810;9.204;2022-08-25T03:30:06;0.50;;;0.50;;
13764;SDS011;6953;48.810;9.204;2022-08-25T03:32:31;0.50;;;0.50;;
13764;SDS011;6953;48.810;9.204;2022-08-25T03:34:58;0.50;;;0.50;;
13764;SDS011;6953;48.810;9.204;2022-08-25T03:37:25;0.50;;;0.50;;
13764;SDS011;6953;48.810;9.204;2022-08-25T03:39:50;0.50;;;0.50;;
13764;SDS011;6953;48.810;9.204;2022-08-25T03:42:16;0.50;;;0.50;;
13764;SDS011;6953;48.810;9.204;2022-08-25T03:44:41;0.50;;;0.50;;
13764;SDS011;6953;48.810;9.204;2022-08-25T03:47:07;0.45;;;0.45;;
13764;SDS011;6953;48.810;9.204;2022-08-25T03:49:32;0.60;;;0.60;;
13764;SDS011;6953;48.810;9.204;2022-08-25T03:51:58;0.50;;;0.50;;
13764;SDS011;6953;48.810;9.204;2022-08-25T03:54:24;0.47;;;0.47;;
13764;SDS011;6953;48.810;9.204;2022-08-25T03:56:50;0.40;;;0.40;;
13764;SDS011;6953;48.810;9.204;2022-08-25T03:59:15;0.50;;;0.50;;
13764;SDS011;6953;48.810;9.204;2022-08-25T04:01:41;0.50;;;0.50;;
13764;SDS011;6953;48.810;9.204;2022-08-25T04:04:09;0.50;;;0.50;;
13764;SDS011;6953;48.810;9.204;2022-08-25T04:06:35;0.57;;;0.57;;
13764;SDS011;6953;48.810;9.204;2022-08-25T04:09:01;0.60;;;0.60;;
13764;SDS011;6953;48.810;9.204;2022-08-25T04:11:27;0.57;;;0.57;;
13764;SDS011;6953;48.810;9.204;2022-08-25T04:13:54;0.60;;;0.60;;
13764;SDS011;6953;48.810;9.204;2022-08-25T04:16:22;0.50;;;0.50;;
13764;SDS011;6953;48.810;9.204;2022-08-25T04:18:49;0.60;;;0.60;;
13764;SDS011;6953;48.810;9.204;2022-08-25T04:21:16;0.60;;;0.60;;
13764;SDS011;6953;48.810;9.204;2022-08-25T04:23:43;0.60;;;0.60;;
13764;SDS011;6953;48.810;9.204;2022-08-25T04:26:20;0.50;;;0.50;;
13764;SDS011;6953;48.810;9.204;2022-08-25T04:28:49;0.50;;;0.50;;
13764;SDS011;6953;48.810;9.204;2022-08-25T04:31:15;0.50;;;0.50;;
13764;SDS011;6953;48.810;9.204;2022-08-25T04:33:42;0.50;;;0.50;;
13764;SDS011;6953;48.810;9.204;2022-08-25T04:36:08;0.60;;;0.60;;
13764;SDS011;6953;48.810;9.204;2022-08-25T04:38:36;0.50;;;0.50;;
13764;SDS011;6953;48.810;9.204;2022-08-25T04:41:03;0.60;;;0.60;;
13764;SDS011;6953;48.810;9.204;2022-08-25T04:43:31;0.52;;;0.52;;
13764;SDS011;6953;48.810;9.204;2022-08-25T04:45:57;0.50;;;0.50;;
13764;SDS011;6953;48.810;9.204;2022-08-25T04:48:23;0.50;;;0.50;;
13764;SDS011;6953;48.810;9.204;2022-08-25T04:50:49;0.52;;;0.52;;
13764;SDS011;6953;48.810;9.204;2022-08-25T04:53:15;0.52;;;0.52;;
13764;SDS011;6953;48.810;9.204;2022-08-25T04:55:42;0.50;;;0.50;;
13764;SDS011;6953;48.810;9.204;2022-08-25T04:58:09;0.50;;;0.50;;
13764;SDS011;6953;48.810;9.204;2022-08-25T05:00:35;0.47;;;0.47;;
13764;SDS011;6953;48.810;9.204;2022-08-25T05:03:02;0.50;;;0.50;;
13764;SDS011;6953;48.810;9.204;2022-08-25T05:05:28;0.50;;;0.50;;
13764;SDS011;6953;48.810;9.204;2022-08-25T05:07:55;0.50;;;0.50;;
13764;SDS011;6953;48.810;9.204;2022-08-25T05:10:20;0.50;;;0.50;;
13764;SDS011;6953;48.810;9.204;2022-08-25T05:12:46;0.40;;;0.40;;
13764;SDS011;6953;48.810;9.204;2022-08-25T05:15:12;0.55;;;0.55;;
13764;SDS011;6953;48.810;9.204;2022-08-25T05:17:56;0.50;;;0.50;;
13764;SDS011;6953;48.810;9.204;2022-08-25T05:20:22;0.40;;;0.40;;
13764;SDS011;6953;48.810;9.204;2022-08-25T05:22:48;0.50;;;0.50;;
13764;SDS011;6953;48.810;9.204;2022-08-25T05:25:13;0.47;;;0.47;;
13764;SDS011;6953;48.810;9.204;2022-08-25T05:27:40;0.47;;;0.47;;
13764;SDS011;6953;48.810;9.204;2022-08-25T05:30:06;0.50;;;0.50;;
13764;SDS011;6953;48.810;9.204;2022-08-25T05:32:33;0.50;;;0.50;;
13764;SDS011;6953;48.810;9.204;2022-08-25T05:34:58;0.50;;;0.50;;
13764;SDS011;6953;48.810;9.204;2022-08-25T05:37:24;0.40;;;0.40;;
13764;SDS011;6953;48.810;9.204;2022-08-25T05:39:49;0.50;;;0.50;;
13764;SDS011;6953;48.810;9.204;2022-08-25T05:42:14;0.30;;;0.30;;
13764;SDS011;6953;48.810;9.204;2022-08-25T05:44:40;0.40;;;0.40;;
13764;SDS011;6953;48.810;9.204;2022-08-25T05:47:05;0.40;;;0.40;;
13764;SDS011;6953;48.810;9.204;2022-08-25T05:49:31;0.35;;;0.35;;
13764;SDS011;6953;48.810;9.204;2022-08-25T05:51:56;0.40;;;0.40;;
13764;SDS011;6953;48.810;9.204;2022-08-25T05:54:22;0.30;;;0.30;;
13764;SDS011;6953;48.810;9.204;2022-08-25T05:56:47;0.30;;;0.30;;
13764;SDS011;6953;48.810;9.204;2022-08-25T05:59:12;0.20;;;0.20;;
13764;SDS011;6953;48.810;9.204;2022-08-25T06:01:38;0.35;;;0.35;;
13764;SDS011;6953;48.810;9.204;2022-08-25T06:04:22;0.20;;;0.20;;
13764;SDS011;6953;48.810;9.204;2022-08-25T06:06:47;0.30;;;0.30;;
13764;SDS011;6953;48.810;9.204;2022-08-25T06:09:13;0.30;;;0.30;;
13764;SDS011;6953;48.810;9.204;2022-08-25T06:11:39;0.30;;;0.30;;
13764;SDS011;6953;48.810;9.204;2022-08-25T06:14:05;0.20;;;0.20;;
13764;SDS011;6953;48.810;9.204;2022-08-25T06:16:34;0.10;;;0.10;;
13764;SDS011;6953;48.810;9.204;2022-08-25T06:19:02;0.00;;;0.00;;
13764;SDS011;6953;48.810;9.204;2022-08-25T06:21:27;0.00;;;0.00;;
13764;SDS011;6953;48.810;9.204;2022-08-25T06:23:53;0.00;;;0.00;;
13764;SDS011;6953;48.810;9.204;2022-08-25T06:26:18;0.00;;;0.00;;
13764;SDS011;6953;48.810;9.204;2022-08-25T06:28:43;0.00;;;0.00;;
13764;SDS011;6953;48.810;9.204;2022-08-25T06:31:09;0.10;;;0.10;;
13764;SDS011;6953;48.810;9.204;2022-08-25T06:33:34;0.10;;;0.10;;
13764;SDS011;6953;48.810;9.204;2022-08-25T06:35:59;0.10;;;0.10;;
13764;SDS011;6953;48.810;9.204;2022-08-25T06:38:25;0.10;;;0.10;;
13764;SDS011;6953;48.810;9.204;2022-08-25T06:40:51;0.20;;;0.20;;
13764;SDS011;6953;48.810;9.204;2022-08-25T06:43:20;0.20;;;0.20;;
13764;SDS011;6953;48.810;9.204;2022-08-25T06:45:46;0.10;;;0.10;;
13764;SDS011;6953;48.810;9.204;2022-08-25T06:48:12;0.08;;;0.08;;
13764;SDS011;6953;48.810;9.204;2022-08-25T06:50:38;0.05;;;0.05;;
13764;SDS011;6953;48.810;9.204;2022-08-25T06:53:04;0.00;;;0.00;;
13764;SDS011;6953;48.810;9.204;2022-08-25T06:55:30;0.00;;;0.00;;
13764;SDS011;6953;48.810;9.204;2022-08-25T06:57:55;0.00;;;0.00;;
13764;SDS011;6953;48.810;9.204;2022-08-25T07:00:20;0.00;;;0.00;;
13764;SDS011;6953;48.810;9.204;2022-08-25T07:02:47;0.00;;;0.00;;
13764;SDS011;6953;48.810;9.204;2022-08-25T07:05:12;0.00;;;0.00;;
13764;SDS011;6953;48.810;9.204;2022-08-25T07:07:38;0.00;;;0.00;;
13764;SDS011;6953;48.810;9.204;2022-08-25T07:10:04;0.00;;;0.00;;
13764;SDS011;6953;48.810;9.204;2022-08-25T07:12:30;0.08;;;0.08;;
13764;SDS011;6953;48.810;9.204;2022-08-25T07:14:55;0.00;;;0.00;;
13764;SDS011;6953;48.810;9.204;2022-08-25T07:17:21;0.00;;;0.00;;
13764;SDS011;6953;48.810;9.204;2022-08-25T07:19:47;0.00;;;0.00;;
13764;SDS011;6953;48.810;9.204;2022-08-25T07:22:13;0.00;;;0.00;;
13764;SDS011;6953;48.810;9.204;2022-08-25T07:24:39;0.00;;;0.00;;
13764;SDS011;6953;48.810;9.204;2022-08-25T07:27:05;0.00;;;0.00;;
13764;SDS011;6953;48.810;9.204;2022-08-25T07:29:30;0.00;;;0.00;;
13764;SDS011;6953;48.810;9.204;2022-08-25T07:31:57;0.00;;;0.00;;
13764;SDS011;6953;48.810;9.204;2022-08-25T07:34:24;0.00;;;0.00;;
13764;SDS011;6953;48.810;9.204;2022-08-25T07:37:08;0.10;;;0.10;;
13764;SDS011;6953;48.810;9.204;2022-08-25T07:39:34;0.10;;;0.10;;
13764;SDS011;6953;48.810;9.204;2022-08-25T07:42:00;0.00;;;0.00;;
13764;SDS011;6953;48.810;9.204;2022-08-25T07:44:25;0.10;;;0.10;;
13764;SDS011;6953;48.810;9.204;2022-08-25T07:46:51;0.10;;;0.10;;
13764;SDS011;6953;48.810;9.204;2022-08-25T07:49:18;0.00;;;0.00;;
13764;SDS011;6953;48.810;9.204;2022-08-25T07:51:44;0.10;;;0.10;;
13764;SDS011;6953;48.810;9.204;2022-08-25T07:54:10;0.00;;;0.00;;
13764;SDS011;6953;48.810;9.204;2022-08-25T07:56:35;0.00;;;0.00;;
13764;SDS011;6953;48.810;9.204;2022-08-25T07:59:00;0.00;;;0.00;;
13764;SDS011;6953;48.810;9.204;2022-08-25T08:01:26;0.00;;;0.00;;
13764;SDS011;6953;48.810;9.204;2022-08-25T08:03:51;0.05;;;0.05;;
13764;SDS011;6953;48.810;9.204;2022-08-25T08:06:18;0.00;;;0.00;;
13764;SDS011;6953;48.810;9.204;2022-08-25T08:08:47;0.00;;;0.00;;
13764;SDS011;6953;48.810;9.204;2022-08-25T08:11:15;0.10;;;0.10;;
13764;SDS011;6953;48.810;9.204;2022-08-25T08:13:48;0.05;;;0.05;;
13764;SDS011;6953;48.810;9.204;2022-08-25T08:16:15;0.00;;;0.00;;
13764;SDS011;6953;48.810;9.204;2022-08-25T08:18:42;0.10;;;0.10;;
13764;SDS011;6953;48.810;9.204;2022-08-25T08:21:27;0.10;;;0.10;;
13764;SDS011;6953;48.810;9.204;2022-08-25T08:23:57;0.00;;;0.00;;
13764;SDS011;6953;48.810;9.204;2022-08-25T08:26:23;0.00;;;0.00;;
13764;SDS011;6953;48.810;9.204;2022-08-25T08:28:49;0.03;;;0.03;;
13764;SDS011;6953;48.810;9.204;2022-08-25T08:31:16;0.10;;;0.10;;
13764;SDS011;6953;48.810;9.204;2022-08-25T08:33:45;0.00;;;0.00;;
13764;SDS011;6953;48.810;9.204;2022-08-25T08:36:11;0.00;;;0.00;;
13764;SDS011;6953;48.810;9.204;2022-08-25T08:38:38;0.10;;;0.10;;
13764;SDS011;6953;48.810;9.204;2022-08-25T08:44:25;0.00;;;0.00;;
13764;SDS011;6953;48.810;9.204;2022-08-25T08:50:02;0.10;;;0.10;;
13764;SDS011;6953;48.810;9.204;2022-08-25T08:58:47;0.00;;;0.00;;
13764;SDS011;6953;48.810;9.204;2022-08-25T09:01:18;0.00;;;0.00;;
13764;SDS011;6953;48.810;9.204;2022-08-25T09:04:01;0.00;;;0.00;;
13764;SDS011;6953;48.810;9.204;2022-08-25T09:06:44;0.00;;;0.00;;
13764;SDS011;6953;48.810;9.204;2022-08-25T09:09:15;0.10;;;0.10;;
13764;SDS011;6953;48.810;9.204;2022-08-25T09:26:15;0.10;;;0.10;;
13764;SDS011;6953;48.810;9.204;2022-08-25T09:28:57;0.00;;;0.00;;
13764;SDS011;6953;48.810;9.204;2022-08-25T09:31:37;0.00;;;0.00;;
13764;SDS011;6953;48.810;9.204;2022-08-25T09:34:06;0.10;;;0.10;;
13764;SDS011;6953;48.810;9.204;2022-08-25T09:36:36;0.00;;;0.00;;
13764;SDS011;6953;48.810;9.204;2022-08-25T09:39:01;0.03;;;0.03;;
13764;SDS011;6953;48.810;9.204;2022-08-25T09:42:01;0.00;;;0.00;;
13764;SDS011;6953;48.810;9.204;2022-08-25T09:44:22;0.00;;;0.00;;
13764;SDS011;6953;48.810;9.204;2022-08-25T09:47:32;0.05;;;0.05;;
13764;SDS011;6953;48.810;9.204;2022-08-25T09:49:42;0.00;;;0.00;;
13764;SDS011;6953;48.810;9.204;2022-08-25T09:52:17;0.10;;;0.10;;
13764;SDS011;6953;48.810;9.204;2022-08-25T09:54:47;0.00;;;0.00;;
13764;SDS011;6953;48.810;9.204;2022-08-25T09:59:54;0.10;;;0.10;;
13764;SDS011;6953;48.810;9.204;2022-08-25T10:04:45;0.10;;;0.10;;
13764;SDS011;6953;48.810;9.204;2022-08-25T10:07:27;0.00;;;0.00;;
13764;SDS011;6953;48.810;9.204;2022-08-25T10:10:00;0.10;;;0.10;;
13764;SDS011;6953;48.810;9.204;2022-08-25T10:12:34;0.00;;;0.00;;
13764;SDS011;6953;48.810;9.204;2022-08-25T10:17:50;0.00;;;0.00;;
13764;SDS011;6953;48.810;9.204;2022-08-25T10:20:21;0.00;;;0.00;;
13764;SDS011;6953;48.810;9.204;2022-08-25T10:22:49;0.10;;;0.10;;
13764;SDS011;6953;48.810;9.204;2022-08-25T10:25:16;0.10;;;0.10;;
13764;SDS011;6953;48.810;9.204;2022-08-25T10:38:51;0.00;;;0.00;;
13764;SDS011;6953;48.810;9.204;2022-08-25T10:47:24;0.05;;;0.05;;
13764;SDS011;6953;48.810;9.204;2022-08-25T10:50:17;0.00;;;0.00;;
13764;SDS011;6953;48.810;9.204;2022-08-25T10:58:24;0.00;;;0.00;;
13764;SDS011;6953;48.810;9.204;2022-08-25T11:01:08;0.10;;;0.10;;
13764;SDS011;6953;48.810;9.204;2022-08-25T11:09:06;0.10;;;0.10;;
13764;SDS011;6953;48.810;9.204;2022-08-25T11:11:39;0.00;;;0.00;;
13764;SDS011;6953;48.810;9.204;2022-08-25T11:14:18;0.10;;;0.10;;
13764;SDS011;6953;48.810;9.204;2022-08-25T11:17:09;0.00;;;0.00;;
13764;SDS011;6953;48.810;9.204;2022-08-25T11:19:51;0.00;;;0.00;;
13764;SDS011;6953;48.810;9.204;2022-08-25T11:22:28;0.00;;;0.00;;
13764;SDS011;6953;48.810;9.204;2022-08-25T11:25:10;0.00;;;0.00;;
13764;SDS011;6953;48.810;9.204;2022-08-25T11:27:56;0.10;;;0.10;;
13764;SDS011;6953;48.810;9.204;2022-08-25T11:30:28;0.00;;;0.00;;
13764;SDS011;6953;48.810;9.204;2022-08-25T11:32:53;0.00;;;0.00;;
13764;SDS011;6953;48.810;9.204;2022-08-25T11:35:33;0.00;;;0.00;;
13764;SDS011;6953;48.810;9.204;2022-08-25T11:40:52;0.00;;;0.00;;
13764;SDS011;6953;48.810;9.204;2022-08-25T11:43:25;0.03;;;0.03;;
13764;SDS011;6953;48.810;9.204;2022-08-25T11:46:10;0.10;;;0.10;;
13764;SDS011;6953;48.810;9.204;2022-08-25T11:48:42;0.00;;;0.00;;
13764;SDS011;6953;48.810;9.204;2022-08-25T11:51:28;0.00;;;0.00;;
13764;SDS011;6953;48.810;9.204;2022-08-25T11:56:42;0.00;;;0.00;;
13764;SDS011;6953;48.810;9.204;2022-08-25T12:04:56;0.00;;;0.00;;
13764;SDS011;6953;48.810;9.204;2022-08-25T12:07:23;0.05;;;0.05;;
13764;SDS011;6953;48.810;9.204;2022-08-25T12:18:17;0.00;;;0.00;;
13764;SDS011;6953;48.810;9.204;2022-08-25T12:23:27;0.08;;;0.08;;
13764;SDS011;6953;48.810;9.204;2022-08-25T12:25:52;0.00;;;0.00;;
13764;SDS011;6953;48.810;9.204;2022-08-25T12:36:40;0.00;;;0.00;;
13764;SDS011;6953;48.810;9.204;2022-08-25T12:39:22;0.00;;;0.00;;
13764;SDS011;6953;48.810;9.204;2022-08-25T12:41:58;0.00;;;0.00;;
13764;SDS011;6953;48.810;9.204;2022-08-25T12:44:35;0.00;;;0.00;;
13764;SDS011;6953;48.810;9.204;2022-08-25T12:47:27;0.00;;;0.00;;
13764;SDS011;6953;48.810;9.204;2022-08-25T12:53:09;0.00;;;0.00;;
13764;SDS011;6953;48.810;9.204;2022-08-25T12:55:36;0.00;;;0.00;;
13764;SDS011;6953;48.810;9.204;2022-08-25T12:58:04;0.00;;;0.00;;
13764;SDS011;6953;48.810;9.204;2022-08-25T13:00:32;0.10;;;0.10;;
13764;SDS011;6953;48.810;9.204;2022-08-25T13:03:24;0.10;;;0.10;;
13764;SDS011;6953;48.810;9.204;2022-08-25T13:06:21;0.08;;;0.08;;
13764;SDS011;6953;48.810;9.204;2022-08-25T13:11:30;0.00;;;0.00;;
13764;SDS011;6953;48.810;9.204;2022-08-25T13:14:08;0.08;;;0.08;;
13764;SDS011;6953;48.810;9.204;2022-08-25T13:16:51;0.05;;;0.05;;
13764;SDS011;6953;48.810;9.204;2022-08-25T13:19:18;0.00;;;0.00;;
13764;SDS011;6953;48.810;9.204;2022-08-25T13:21:45;0.05;;;0.05;;
13764;SDS011;6953;48.810;9.204;2022-08-25T13:24:18;0.00;;;0.00;;
13764;SDS011;6953;48.810;9.204;2022-08-25T13:26:51;0.00;;;0.00;;
13764;SDS011;6953;48.810;9.204;2022-08-25T13:29:26;0.00;;;0.00;;
13764;SDS011;6953;48.810;9.204;2022-08-25T13:31:57;0.00;;;0.00;;
13764;SDS011;6953;48.810;9.204;2022-08-25T13:34:27;0.00;;;0.00;;
13764;SDS011;6953;48.810;9.204;2022-08-25T13:36:55;0.00;;;0.00;;
13764;SDS011;6953;48.810;9.204;2022-08-25T13:39:46;0.00;;;0.00;;
13764;SDS011;6953;48.810;9.204;2022-08-25T13:42:12;0.00;;;0.00;;
13764;SDS011;6953;48.810;9.204;2022-08-25T13:44:40;0.00;;;0.00;;
13764;SDS011;6953;48.810;9.204;2022-08-25T13:47:14;0.00;;;0.00;;
13764;SDS011;6953;48.810;9.204;2022-08-25T13:50:13;0.00;;;0.00;;
13764;SDS011;6953;48.810;9.204;2022-08-25T13:52:58;0.00;;;0.00;;
13764;SDS011;6953;48.810;9.204;2022-08-25T13:55:28;0.00;;;0.00;;
13764;SDS011;6953;48.810;9.204;2022-08-25T13:57:59;0.00;;;0.00;;
13764;SDS011;6953;48.810;9.204;2022-08-25T14:00:40;0.00;;;0.00;;
13764;SDS011;6953;48.810;9.204;2022-08-25T14:03:26;0.00;;;0.00;;
13764;SDS011;6953;48.810;9.204;2022-08-25T14:06:17;0.00;;;0.00;;
13764;SDS011;6953;48.810;9.204;2022-08-25T14:08:47;0.00;;;0.00;;
13764;SDS011;6953;48.810;9.204;2022-08-25T14:14:10;0.00;;;0.00;;
13764;SDS011;6953;48.810;9.204;2022-08-25T14:16:49;0.00;;;0.00;;
13764;SDS011;6953;48.810;9.204;2022-08-25T14:19:22;0.00;;;0.00;;
13764;SDS011;6953;48.810;9.204;2022-08-25T14:21:49;0.00;;;0.00;;
13764;SDS011;6953;48.810;9.204;2022-08-25T14:24:17;0.10;;;0.10;;
13764;SDS011;6953;48.810;9.204;2022-08-25T14:26:45;0.00;;;0.00;;
13764;SDS011;6953;48.810;9.204;2022-08-25T14:29:11;0.00;;;0.00;;
13764;SDS011;6953;48.810;9.204;2022-08-25T14:31:38;0.00;;;0.00;;
13764;SDS011;6953;48.810;9.204;2022-08-25T14:34:08;0.10;;;0.10;;
13764;SDS011;6953;48.810;9.204;2022-08-25T14:36:39;0.10;;;0.10;;
13764;SDS011;6953;48.810;9.204;2022-08-25T14:39:05;0.10;;;0.10;;
13764;SDS011;6953;48.810;9.204;2022-08-25T14:41:34;0.10;;;0.10;;
13764;SDS011;6953;48.810;9.204;2022-08-25T14:44:01;0.10;;;0.10;;
13764;SDS011;6953;48.810;9.204;2022-08-25T14:46:29;0.10;;;0.10;;
13764;SDS011;6953;48.810;9.204;2022-08-25T14:48:58;0.10;;;0.10;;
13764;SDS011;6953;48.810;9.204;2022-08-25T14:51:26;0.10;;;0.10;;
13764;SDS011;6953;48.810;9.204;2022-08-25T14:53:53;0.10;;;0.10;;
13764;SDS011;6953;48.810;9.204;2022-08-25T14:56:22;0.10;;;0.10;;
13764;SDS011;6953;48.810;9.204;2022-08-25T14:58:48;0.10;;;0.10;;
13764;SDS011;6953;48.810;9.204;2022-08-25T15:01:13;0.10;;;0.10;;
13764;SDS011;6953;48.810;9.204;2022-08-25T15:03:41;0.10;;;0.10;;
13764;SDS011;6953;48.810;9.204;2022-08-25T15:06:10;0.10;;;0.10;;
13764;SDS011;6953;48.810;9.204;2022-08-25T15:08:38;0.10;;;0.10;;
13764;SDS011;6953;48.810;9.204;2022-08-25T15:11:22;0.08;;;0.08;;
13764;SDS011;6953;48.810;9.204;2022-08-25T15:13:48;0.10;;;0.10;;
13764;SDS011;6953;48.810;9.204;2022-08-25T15:16:14;0.00;;;0.00;;
13764;SDS011;6953;48.810;9.204;2022-08-25T15:18:44;0.10;;;0.10;;
13764;SDS011;6953;48.810;9.204;2022-08-25T15:21:10;0.10;;;0.10;;
13764;SDS011;6953;48.810;9.204;2022-08-25T15:23:36;0.10;;;0.10;;
13764;SDS011;6953;48.810;9.204;2022-08-25T15:26:01;0.10;;;0.10;;
13764;SDS011;6953;48.810;9.204;2022-08-25T15:28:26;0.10;;;0.10;;
13764;SDS011;6953;48.810;9.204;2022-08-25T15:30:52;0.10;;;0.10;;
13764;SDS011;6953;48.810;9.204;2022-08-25T15:33:17;0.10;;;0.10;;
13764;SDS011;6953;48.810;9.204;2022-08-25T15:35:43;0.10;;;0.10;;
13764;SDS011;6953;48.810;9.204;2022-08-25T15:38:09;0.10;;;0.10;;
13764;SDS011;6953;48.810;9.204;2022-08-25T15:40:34;0.13;;;0.13;;
13764;SDS011;6953;48.810;9.204;2022-08-25T15:43:01;0.10;;;0.10;;
13764;SDS011;6953;48.810;9.204;2022-08-25T15:45:27;0.10;;;0.10;;
13764;SDS011;6953;48.810;9.204;2022-08-25T15:47:53;0.10;;;0.10;;
13764;SDS011;6953;48.810;9.204;2022-08-25T15:50:18;0.10;;;0.10;;
13764;SDS011;6953;48.810;9.204;2022-08-25T15:52:45;0.10;;;0.10;;
13764;SDS011;6953;48.810;9.204;2022-08-25T15:55:10;0.10;;;0.10;;
13764;SDS011;6953;48.810;9.204;2022-08-25T15:57:37;0.10;;;0.10;;
13764;SDS011;6953;48.810;9.204;2022-08-25T16:00:04;0.20;;;0.20;;
13764;SDS011;6953;48.810;9.204;2022-08-25T16:02:31;0.10;;;0.10;;
13764;SDS011;6953;48.810;9.204;2022-08-25T16:04:58;0.10;;;0.10;;
13764;SDS011;6953;48.810;9.204;2022-08-25T16:07:25;0.10;;;0.10;;
13764;SDS011;6953;48.810;9.204;2022-08-25T16:09:51;0.10;;;0.10;;
13764;SDS011;6953;48.810;9.204;2022-08-25T16:12:20;0.10;;;0.10;;
13764;SDS011;6953;48.810;9.204;2022-08-25T16:14:46;0.10;;;0.10;;
13764;SDS011;6953;48.810;9.204;2022-08-25T16:17:12;0.10;;;0.10;;
13764;SDS011;6953;48.810;9.204;2022-08-25T16:19:38;0.10;;;0.10;;
13764;SDS011;6953;48.810;9.204;2022-08-25T16:22:04;0.10;;;0.10;;
13764;SDS011;6953;48.810;9.204;2022-08-25T16:24:29;0.10;;;0.10;;
13764;SDS011;6953;48.810;9.204;2022-08-25T16:26:55;0.10;;;0.10;;
13764;SDS011;6953;48.810;9.204;2022-08-25T16:29:28;0.10;;;0.10;;
13764;SDS011;6953;48.810;9.204;2022-08-25T16:31:55;0.10;;;0.10;;
13764;SDS011;6953;48.810;9.204;2022-08-25T16:34:22;0.10;;;0.10;;
13764;SDS011;6953;48.810;9.204;2022-08-25T16:36:48;0.10;;;0.10;;
13764;SDS011;6953;48.810;9.204;2022-08-25T16:39:13;0.10;;;0.10;;
13764;SDS011;6953;48.810;9.204;2022-08-25T16:41:38;0.10;;;0.10;;
13764;SDS011;6953;48.810;9.204;2022-08-25T16:44:04;0.10;;;0.10;;
13764;SDS011;6953;48.810;9.204;2022-08-25T16:46:34;0.10;;;0.10;;
13764;SDS011;6953;48.810;9.204;2022-08-25T16:49:00;0.10;;;0.10;;
13764;SDS011;6953;48.810;9.204;2022-08-25T16:51:27;0.10;;;0.10;;
13764;SDS011;6953;48.810;9.204;2022-08-25T16:53:52;0.10;;;0.10;;
13764;SDS011;6953;48.810;9.204;2022-08-25T16:56:36;0.10;;;0.10;;